Погода Гарсана неделю

Сан-Паулу, Бразилия

17 - 23 июня
  • 17июня
    Сегодня
    +18°
    +29°
    Ясно и безоблачно
    ВремяПогодаТемператураВлажностьДавлениеВетер, м/сВероятность осадков
    00:00Ясно и безоблачно+20°C62 %710 мм2.2 м/с5 %
    03:00Ясно и безоблачно+19°C61 %710 мм2.3 м/с5 %
    06:00Практически безоблачно+18°C69 %710 мм2.3 м/с5 %
    09:00Небольшая облачность+22°C60 %711 мм2.7 м/с5 %
    12:00Небольшая облачность+26°C40 %711 мм4.1 м/с5 %
    15:00Ясно и безоблачно+29°C35 %709 мм3.5 м/с5 %
    18:00Ясно и безоблачно+26°C52 %709 мм2.1 м/с5 %
    21:00Ясно и безоблачно+24°C59 %709 мм2.2 м/с5 %
  • 18июня
    Вторник
    +18°
    +30°
    Ясно и безоблачно
    ВремяПогодаТемператураВлажностьДавлениеВетер, м/сВероятность осадков
    00:00Ясно и безоблачно+19°C59 %709 мм2.5 м/с5 %
    03:00Ясно и безоблачно+18°C61 %708 мм2.2 м/с5 %
    06:00Ясно и безоблачно+19°C64 %709 мм2.7 м/с5 %
    09:00Ясно и безоблачно+22°C57 %711 мм3.2 м/с5 %
    12:00Ясно и безоблачно+27°C39 %711 мм4.2 м/с5 %
    15:00Ясно и безоблачно+29°C32 %709 мм3.6 м/с5 %
    18:00Ясно и безоблачно+26°C49 %709 мм2.1 м/с5 %
    21:00Ясно и безоблачно+23°C54 %709 мм2.1 м/с5 %
  • 19июня
    Среда
    +19°
    +30°
    Ясно и безоблачно
    ВремяПогодаТемператураВлажностьДавлениеВетер, м/сВероятность осадков
    00:00Ясно и безоблачно+20°C53 %709 мм2.1 м/с5 %
    03:00Ясно и безоблачно+18°C56 %708 мм2.4 м/с5 %
    06:00Ясно и безоблачно+20°C55 %709 мм2.8 м/с5 %
    09:00Ясно и безоблачно+22°C53 %711 мм2.6 м/с5 %
    12:00Ясно и безоблачно+27°C40 %712 мм3.4 м/с5 %
    15:00Ясно и безоблачно+30°C30 %710 мм2.9 м/с5 %
    18:00Ясно и безоблачно+27°C47 %710 мм2.4 м/с5 %
    21:00Ясно и безоблачно+24°C49 %711 мм2.2 м/с5 %
  • 20июня
    Четверг
    +18°
    +30°
    Ясно и безоблачно
    ВремяПогодаТемператураВлажностьДавлениеВетер, м/сВероятность осадков
    00:00Ясно и безоблачно+21°C50 %711 мм2.7 м/с5 %
    03:00Ясно и безоблачно+20°C51 %710 мм2.3 м/с5 %
    06:00Ясно и безоблачно+21°C53 %710 мм2.7 м/с5 %
    09:00Небольшая облачность+23°C47 %712 мм2.4 м/с5 %
    12:00Облачно с прояснениями+27°C34 %712 мм2.7 м/с5 %
    15:00Ясно и безоблачно+30°C29 %711 мм1.4 м/с5 %
    18:00Ясно и безоблачно+26°C47 %710 мм1.9 м/с5 %
    21:00Ясно и безоблачно+24°C50 %711 мм2.6 м/с5 %
Мы используем cookies
Соглашаюсь